sensor_id;sensor_type;location;lat;lon;timestamp;pressure;altitude;pressure_sealevel;temperature;humidity
63405;BME280;49541;57.840;12.306;2023-02-22T00:03:46;100853.78;;;-1.38;68.33
63405;BME280;49541;57.840;12.306;2023-02-22T00:08:47;100853.06;;;-1.70;69.00
63405;BME280;49541;57.840;12.306;2023-02-22T00:13:48;100862.38;;;-1.61;69.29
63405;BME280;49541;57.840;12.306;2023-02-22T00:18:49;100862.53;;;-1.39;68.53
63405;BME280;49541;57.840;12.306;2023-02-22T00:23:50;100867.94;;;-1.44;68.39
63405;BME280;49541;57.840;12.306;2023-02-22T00:28:53;100864.25;;;-1.65;69.17
63405;BME280;49541;57.840;12.306;2023-02-22T00:33:53;100872.34;;;-1.46;68.34
63405;BME280;49541;57.840;12.306;2023-02-22T00:38:54;100867.66;;;-1.63;69.15
63405;BME280;49541;57.840;12.306;2023-02-22T00:43:54;100874.22;;;-1.51;68.67
63405;BME280;49541;57.840;12.306;2023-02-22T00:48:54;100855.13;;;-1.53;68.02
63405;BME280;49541;57.840;12.306;2023-02-22T00:53:54;100876.09;;;-1.55;68.64
63405;BME280;49541;57.840;12.306;2023-02-22T00:58:55;100874.72;;;-1.67;68.76
63405;BME280;49541;57.840;12.306;2023-02-22T01:03:55;100875.41;;;-0.81;67.79
63405;BME280;49541;57.840;12.306;2023-02-22T01:08:55;100875.03;;;-1.76;69.66
63405;BME280;49541;57.840;12.306;2023-02-22T01:13:55;100872.25;;;-1.99;70.68
63405;BME280;49541;57.840;12.306;2023-02-22T01:18:56;100868.63;;;-2.23;70.98
63405;BME280;49541;57.840;12.306;2023-02-22T01:23:57;100864.53;;;-2.32;72.32
63405;BME280;49541;57.840;12.306;2023-02-22T01:28:57;100866.63;;;-2.45;72.21
63405;BME280;49541;57.840;12.306;2023-02-22T01:33:57;100861.84;;;-2.31;72.67
63405;BME280;49541;57.840;12.306;2023-02-22T01:38:57;100863.75;;;-2.36;71.85
63405;BME280;49541;57.840;12.306;2023-02-22T01:44:15;100866.44;;;-2.09;71.88
63405;BME280;49541;57.840;12.306;2023-02-22T01:49:16;100871.94;;;-2.18;72.58
63405;BME280;49541;57.840;12.306;2023-02-22T01:54:24;100868.09;;;-2.07;71.86
63405;BME280;49541;57.840;12.306;2023-02-22T01:59:26;100863.78;;;-2.08;71.73
63405;BME280;49541;57.840;12.306;2023-02-22T02:04:28;100880.75;;;-1.93;71.22
63405;BME280;49541;57.840;12.306;2023-02-22T02:09:35;100874.34;;;-2.11;71.81
63405;BME280;49541;57.840;12.306;2023-02-22T02:14:39;100875.34;;;-1.87;71.28
63405;BME280;49541;57.840;12.306;2023-02-22T02:30:07;100876.53;;;-2.27;72.37
63405;BME280;49541;57.840;12.306;2023-02-22T02:40:40;100863.47;;;-2.27;72.37
63405;BME280;49541;57.840;12.306;2023-02-22T02:45:45;100874.41;;;-2.14;71.17
63405;BME280;49541;57.840;12.306;2023-02-22T02:50:47;100881.84;;;-2.30;71.59
63405;BME280;49541;57.840;12.306;2023-02-22T02:55:48;100879.63;;;-2.14;70.13
63405;BME280;49541;57.840;12.306;2023-02-22T03:00:49;100875.31;;;-2.44;70.70
63405;BME280;49541;57.840;12.306;2023-02-22T03:11:15;100886.78;;;-1.62;69.23
63405;BME280;49541;57.840;12.306;2023-02-22T03:16:23;100876.25;;;-2.17;70.91
63405;BME280;49541;57.840;12.306;2023-02-22T03:21:40;100877.09;;;-2.47;71.38
63405;BME280;49541;57.840;12.306;2023-02-22T03:27:07;100865.53;;;-2.36;71.90
63405;BME280;49541;57.840;12.306;2023-02-22T03:32:10;100864.88;;;-2.44;71.77
63405;BME280;49541;57.840;12.306;2023-02-22T03:37:14;100862.78;;;-2.63;72.81
63405;BME280;49541;57.840;12.306;2023-02-22T03:42:16;100864.09;;;-2.48;72.75
63405;BME280;49541;57.840;12.306;2023-02-22T03:47:24;100872.66;;;-2.43;72.89
63405;BME280;49541;57.840;12.306;2023-02-22T03:52:27;100863.44;;;-2.25;72.11
63405;BME280;49541;57.840;12.306;2023-02-22T03:57:28;100863.78;;;-2.37;71.61
63405;BME280;49541;57.840;12.306;2023-02-22T04:02:31;100873.94;;;-1.98;72.34
63405;BME280;49541;57.840;12.306;2023-02-22T04:07:31;100871.34;;;-1.98;73.53
63405;BME280;49541;57.840;12.306;2023-02-22T04:12:31;100871.44;;;-2.31;73.90
63405;BME280;49541;57.840;12.306;2023-02-22T04:17:31;100869.31;;;-1.60;73.23
63405;BME280;49541;57.840;12.306;2023-02-22T04:22:32;100868.66;;;-1.67;72.60
63405;BME280;49541;57.840;12.306;2023-02-22T04:27:32;100870.81;;;-1.81;72.73
63405;BME280;49541;57.840;12.306;2023-02-22T04:32:33;100866.66;;;-1.87;74.02
63405;BME280;49541;57.840;12.306;2023-02-22T04:37:33;100877.44;;;-1.70;72.62
63405;BME280;49541;57.840;12.306;2023-02-22T04:42:34;100882.63;;;-1.15;71.76
63405;BME280;49541;57.840;12.306;2023-02-22T04:47:35;100884.78;;;-0.76;70.04
63405;BME280;49541;57.840;12.306;2023-02-22T04:52:35;100880.84;;;-0.88;70.15
63405;BME280;49541;57.840;12.306;2023-02-22T04:57:35;100883.88;;;-1.00;71.11
63405;BME280;49541;57.840;12.306;2023-02-22T05:02:37;100883.91;;;-1.01;69.02
63405;BME280;49541;57.840;12.306;2023-02-22T05:07:38;100878.66;;;-1.00;70.55
63405;BME280;49541;57.840;12.306;2023-02-22T05:12:38;100873.78;;;-0.60;68.92
63405;BME280;49541;57.840;12.306;2023-02-22T05:17:39;100875.06;;;-0.47;68.40
63405;BME280;49541;57.840;12.306;2023-02-22T05:22:39;100879.88;;;-0.60;69.36
63405;BME280;49541;57.840;12.306;2023-02-22T05:27:40;100873.91;;;-0.64;69.32
63405;BME280;49541;57.840;12.306;2023-02-22T05:32:40;100872.94;;;-0.37;68.17
63405;BME280;49541;57.840;12.306;2023-02-22T05:37:40;100874.34;;;-0.52;68.16
63405;BME280;49541;57.840;12.306;2023-02-22T05:42:40;100854.97;;;-0.47;67.84
63405;BME280;49541;57.840;12.306;2023-02-22T05:47:40;100855.53;;;-0.62;68.12
63405;BME280;49541;57.840;12.306;2023-02-22T05:52:41;100854.53;;;-0.34;68.22
63405;BME280;49541;57.840;12.306;2023-02-22T05:57:41;100868.19;;;-0.75;69.38
63405;BME280;49541;57.840;12.306;2023-02-22T06:02:41;100881.72;;;-0.38;67.42
63405;BME280;49541;57.840;12.306;2023-02-22T06:07:42;100883.31;;;-0.34;67.98
63405;BME280;49541;57.840;12.306;2023-02-22T06:12:42;100887.63;;;-0.33;69.79
63405;BME280;49541;57.840;12.306;2023-02-22T06:17:43;100891.28;;;-0.14;68.45
63405;BME280;49541;57.840;12.306;2023-02-22T06:22:45;100895.66;;;0.31;67.64
63405;BME280;49541;57.840;12.306;2023-02-22T06:27:45;100899.81;;;0.37;66.77
63405;BME280;49541;57.840;12.306;2023-02-22T06:32:46;100898.31;;;0.08;67.00
63405;BME280;49541;57.840;12.306;2023-02-22T06:37:46;100902.44;;;0.59;67.17
63405;BME280;49541;57.840;12.306;2023-02-22T06:42:47;100910.16;;;0.62;66.92
63405;BME280;49541;57.840;12.306;2023-02-22T06:47:47;100916.06;;;-0.01;67.63
63405;BME280;49541;57.840;12.306;2023-02-22T06:52:51;100927.53;;;1.07;65.55
63405;BME280;49541;57.840;12.306;2023-02-22T06:57:51;100920.53;;;0.65;66.49
63405;BME280;49541;57.840;12.306;2023-02-22T07:02:52;100925.28;;;0.33;67.85
63405;BME280;49541;57.840;12.306;2023-02-22T07:07:53;100924.63;;;0.50;68.02
63405;BME280;49541;57.840;12.306;2023-02-22T07:12:53;100922.75;;;0.54;67.40
63405;BME280;49541;57.840;12.306;2023-02-22T07:17:54;100932.94;;;0.60;66.54
63405;BME280;49541;57.840;12.306;2023-02-22T07:22:54;100930.28;;;0.61;67.50
63405;BME280;49541;57.840;12.306;2023-02-22T07:27:54;100926.53;;;0.89;67.07
63405;BME280;49541;57.840;12.306;2023-02-22T07:32:55;100924.38;;;0.99;66.08
63405;BME280;49541;57.840;12.306;2023-02-22T07:37:56;100928.56;;;0.82;66.56
63405;BME280;49541;57.840;12.306;2023-02-22T07:43:00;100941.38;;;0.68;67.11
63405;BME280;49541;57.840;12.306;2023-02-22T07:48:02;100928.78;;;0.98;66.39
63405;BME280;49541;57.840;12.306;2023-02-22T07:53:03;100928.84;;;0.75;66.85
63405;BME280;49541;57.840;12.306;2023-02-22T07:58:05;100925.69;;;0.89;67.18
63405;BME280;49541;57.840;12.306;2023-02-22T08:03:07;100938.56;;;0.95;67.43
63405;BME280;49541;57.840;12.306;2023-02-22T08:08:07;100944.06;;;1.09;66.93
63405;BME280;49541;57.840;12.306;2023-02-22T08:13:08;100952.72;;;1.11;66.79
63405;BME280;49541;57.840;12.306;2023-02-22T08:18:12;100954.16;;;0.98;66.73
63405;BME280;49541;57.840;12.306;2023-02-22T08:23:13;100944.34;;;1.23;66.81
63405;BME280;49541;57.840;12.306;2023-02-22T08:28:14;100946.56;;;1.12;67.69
63405;BME280;49541;57.840;12.306;2023-02-22T08:33:15;100946.56;;;1.12;67.39
63405;BME280;49541;57.840;12.306;2023-02-22T08:38:22;100944.47;;;1.20;67.71
63405;BME280;49541;57.840;12.306;2023-02-22T08:43:22;100945.41;;;1.19;67.54
63405;BME280;49541;57.840;12.306;2023-02-22T08:48:23;100949.22;;;1.53;66.53
63405;BME280;49541;57.840;12.306;2023-02-22T08:53:23;100949.19;;;1.74;66.57
63405;BME280;49541;57.840;12.306;2023-02-22T08:58:23;100950.97;;;1.73;66.33
63405;BME280;49541;57.840;12.306;2023-02-22T09:03:23;100951.75;;;1.75;67.04
63405;BME280;49541;57.840;12.306;2023-02-22T09:08:23;100957.38;;;1.87;66.37
63405;BME280;49541;57.840;12.306;2023-02-22T09:13:24;100954.91;;;2.02;65.61
63405;BME280;49541;57.840;12.306;2023-02-22T09:18:25;100949.78;;;1.99;65.67
63405;BME280;49541;57.840;12.306;2023-02-22T09:23:26;100947.13;;;2.39;65.07
63405;BME280;49541;57.840;12.306;2023-02-22T09:28:26;100948.34;;;2.68;64.15
63405;BME280;49541;57.840;12.306;2023-02-22T09:33:26;100944.69;;;3.07;63.77
63405;BME280;49541;57.840;12.306;2023-02-22T09:38:27;100940.84;;;3.14;62.11
63405;BME280;49541;57.840;12.306;2023-02-22T09:43:31;100949.94;;;3.42;61.94
63405;BME280;49541;57.840;12.306;2023-02-22T09:48:35;100956.22;;;3.57;61.81
63405;BME280;49541;57.840;12.306;2023-02-22T09:53:40;100954.72;;;3.86;60.73
63405;BME280;49541;57.840;12.306;2023-02-22T09:58:44;100955.50;;;3.71;60.83
63405;BME280;49541;57.840;12.306;2023-02-22T10:03:54;100949.81;;;3.45;61.96
63405;BME280;49541;57.840;12.306;2023-02-22T10:08:59;100955.38;;;3.39;62.98
63405;BME280;49541;57.840;12.306;2023-02-22T10:19:30;100942.50;;;4.17;60.82
63405;BME280;49541;57.840;12.306;2023-02-22T10:24:47;100946.06;;;4.00;60.93
63405;BME280;49541;57.840;12.306;2023-02-22T10:29:50;100952.38;;;4.45;59.28
63405;BME280;49541;57.840;12.306;2023-02-22T10:34:53;100938.78;;;4.21;60.78
63405;BME280;49541;57.840;12.306;2023-02-22T10:39:58;100929.78;;;4.25;59.91
63405;BME280;49541;57.840;12.306;2023-02-22T10:45:04;100939.03;;;3.83;62.18
63405;BME280;49541;57.840;12.306;2023-02-22T10:50:05;100938.91;;;4.02;62.12
63405;BME280;49541;57.840;12.306;2023-02-22T10:55:10;100938.69;;;4.38;60.04
63405;BME280;49541;57.840;12.306;2023-02-22T11:05:37;100941.78;;;4.46;60.95
63405;BME280;49541;57.840;12.306;2023-02-22T11:10:38;100932.75;;;4.50;61.44
63405;BME280;49541;57.840;12.306;2023-02-22T11:15:38;100927.19;;;4.87;61.02
63405;BME280;49541;57.840;12.306;2023-02-22T11:20:38;100921.22;;;4.99;59.90
63405;BME280;49541;57.840;12.306;2023-02-22T11:25:39;100924.91;;;5.11;59.62
63405;BME280;49541;57.840;12.306;2023-02-22T11:30:41;100912.72;;;5.39;59.81
63405;BME280;49541;57.840;12.306;2023-02-22T11:35:53;100904.72;;;5.40;58.92
63405;BME280;49541;57.840;12.306;2023-02-22T11:46:04;100898.94;;;5.33;58.21
63405;BME280;49541;57.840;12.306;2023-02-22T11:51:18;100898.47;;;4.97;60.29
63405;BME280;49541;57.840;12.306;2023-02-22T12:01:57;100910.91;;;5.25;58.70
63405;BME280;49541;57.840;12.306;2023-02-22T12:22:43;100902.25;;;5.80;58.05
63405;BME280;49541;57.840;12.306;2023-02-22T12:32:49;100887.53;;;5.90;57.42
63405;BME280;49541;57.840;12.306;2023-02-22T12:43:01;100886.00;;;5.29;58.39
63405;BME280;49541;57.840;12.306;2023-02-22T12:53:30;100875.53;;;5.42;60.20
63405;BME280;49541;57.840;12.306;2023-02-22T12:58:38;100873.88;;;5.41;59.79
63405;BME280;49541;57.840;12.306;2023-02-22T13:03:42;100861.81;;;5.51;58.78
63405;BME280;49541;57.840;12.306;2023-02-22T13:08:59;100864.25;;;5.54;58.60
63405;BME280;49541;57.840;12.306;2023-02-22T13:14:06;100867.63;;;6.13;56.48
63405;BME280;49541;57.840;12.306;2023-02-22T13:29:33;100857.81;;;6.01;58.53
63405;BME280;49541;57.840;12.306;2023-02-22T13:39:39;100850.03;;;7.07;54.65
63405;BME280;49541;57.840;12.306;2023-02-22T13:50:14;100854.19;;;7.62;52.71
63405;BME280;49541;57.840;12.306;2023-02-22T13:55:21;100851.09;;;7.68;52.39
63405;BME280;49541;57.840;12.306;2023-02-22T14:00:59;100840.63;;;7.15;54.56
63405;BME280;49541;57.840;12.306;2023-02-22T14:05:54;100833.50;;;7.29;53.24
63405;BME280;49541;57.840;12.306;2023-02-22T14:10:57;100819.72;;;6.85;54.67
63405;BME280;49541;57.840;12.306;2023-02-22T14:31:25;100814.69;;;6.55;56.46
63405;BME280;49541;57.840;12.306;2023-02-22T14:36:31;100814.78;;;6.53;56.70
63405;BME280;49541;57.840;12.306;2023-02-22T14:41:33;100821.84;;;6.80;55.69
63405;BME280;49541;57.840;12.306;2023-02-22T14:46:35;100815.22;;;6.60;55.11
63405;BME280;49541;57.840;12.306;2023-02-22T14:51:40;100816.03;;;6.21;55.84
63405;BME280;49541;57.840;12.306;2023-02-22T14:56:41;100810.59;;;6.09;57.20
63405;BME280;49541;57.840;12.306;2023-02-22T15:01:48;100805.34;;;5.95;56.72
63405;BME280;49541;57.840;12.306;2023-02-22T15:06:49;100805.06;;;6.27;56.14
63405;BME280;49541;57.840;12.306;2023-02-22T15:17:02;100794.75;;;5.81;57.88
63405;BME280;49541;57.840;12.306;2023-02-22T15:22:06;100795.25;;;5.73;58.14
63405;BME280;49541;57.840;12.306;2023-02-22T15:27:17;100794.03;;;5.79;58.13
63405;BME280;49541;57.840;12.306;2023-02-22T15:32:19;100796.84;;;5.90;57.16
63405;BME280;49541;57.840;12.306;2023-02-22T15:37:28;100802.13;;;5.90;56.91
63405;BME280;49541;57.840;12.306;2023-02-22T15:42:28;100797.16;;;5.71;57.91
63405;BME280;49541;57.840;12.306;2023-02-22T15:47:29;100798.09;;;5.70;58.46
63405;BME280;49541;57.840;12.306;2023-02-22T15:52:31;100805.09;;;5.71;58.77
63405;BME280;49541;57.840;12.306;2023-02-22T15:57:31;100797.22;;;5.84;57.39
63405;BME280;49541;57.840;12.306;2023-02-22T16:02:35;100791.03;;;5.42;57.83
63405;BME280;49541;57.840;12.306;2023-02-22T16:07:37;100794.56;;;5.42;57.79
63405;BME280;49541;57.840;12.306;2023-02-22T16:12:38;100786.34;;;5.32;58.29
63405;BME280;49541;57.840;12.306;2023-02-22T16:17:38;100778.78;;;5.26;58.72
63405;BME280;49541;57.840;12.306;2023-02-22T16:22:40;100779.53;;;5.57;57.89
63405;BME280;49541;57.840;12.306;2023-02-22T16:28:27;100794.06;;;5.21;58.80
63405;BME280;49541;57.840;12.306;2023-02-22T16:33:10;100794.03;;;4.92;59.83
63405;BME280;49541;57.840;12.306;2023-02-22T16:38:12;100782.09;;;5.01;59.08
63405;BME280;49541;57.840;12.306;2023-02-22T16:43:19;100776.13;;;4.98;59.38
63405;BME280;49541;57.840;12.306;2023-02-22T16:48:21;100787.16;;;5.04;58.71
63405;BME280;49541;57.840;12.306;2023-02-22T16:53:23;100791.72;;;4.72;60.79
63405;BME280;49541;57.840;12.306;2023-02-22T16:58:24;100785.75;;;4.99;58.95
63405;BME280;49541;57.840;12.306;2023-02-22T17:03:28;100784.03;;;4.83;59.56
63405;BME280;49541;57.840;12.306;2023-02-22T17:08:28;100782.09;;;5.16;58.24
63405;BME280;49541;57.840;12.306;2023-02-22T17:13:29;100785.38;;;5.05;59.06
63405;BME280;49541;57.840;12.306;2023-02-22T17:18:29;100786.22;;;4.91;58.49
63405;BME280;49541;57.840;12.306;2023-02-22T17:23:32;100785.97;;;4.65;59.59
63405;BME280;49541;57.840;12.306;2023-02-22T17:28:33;100786.47;;;4.72;59.84
63405;BME280;49541;57.840;12.306;2023-02-22T17:33:33;100782.06;;;4.87;59.54
63405;BME280;49541;57.840;12.306;2023-02-22T17:38:35;100780.47;;;4.99;58.35
63405;BME280;49541;57.840;12.306;2023-02-22T17:43:35;100790.09;;;5.14;57.26
63405;BME280;49541;57.840;12.306;2023-02-22T17:48:36;100784.25;;;5.38;57.31
63405;BME280;49541;57.840;12.306;2023-02-22T17:53:37;100782.16;;;4.85;59.18
63405;BME280;49541;57.840;12.306;2023-02-22T17:58:38;100782.63;;;4.78;59.42
63405;BME280;49541;57.840;12.306;2023-02-22T18:03:38;100788.16;;;4.73;58.98
63405;BME280;49541;57.840;12.306;2023-02-22T18:08:39;100789.09;;;4.72;59.30
63405;BME280;49541;57.840;12.306;2023-02-22T18:13:39;100791.09;;;4.83;59.09
63405;BME280;49541;57.840;12.306;2023-02-22T18:18:39;100788.06;;;4.75;58.99
63405;BME280;49541;57.840;12.306;2023-02-22T18:23:39;100788.19;;;4.87;58.88
63405;BME280;49541;57.840;12.306;2023-02-22T18:28:40;100788.34;;;4.40;60.67
63405;BME280;49541;57.840;12.306;2023-02-22T18:33:40;100784.53;;;4.29;62.04
63405;BME280;49541;57.840;12.306;2023-02-22T18:38:42;100771.19;;;4.17;61.89
63405;BME280;49541;57.840;12.306;2023-02-22T18:43:43;100772.06;;;4.01;63.78
63405;BME280;49541;57.840;12.306;2023-02-22T18:48:44;100771.47;;;4.42;62.50
63405;BME280;49541;57.840;12.306;2023-02-22T18:53:44;100769.94;;;4.08;63.59
63405;BME280;49541;57.840;12.306;2023-02-22T18:58:45;100778.63;;;4.40;62.53
63405;BME280;49541;57.840;12.306;2023-02-22T19:03:46;100771.81;;;4.52;61.23
63405;BME280;49541;57.840;12.306;2023-02-22T19:08:46;100771.19;;;4.17;63.44
63405;BME280;49541;57.840;12.306;2023-02-22T19:13:48;100751.22;;;4.13;63.10
63405;BME280;49541;57.840;12.306;2023-02-22T19:18:49;100757.50;;;4.26;63.22
63405;BME280;49541;57.840;12.306;2023-02-22T19:23:51;100761.56;;;4.31;62.88
63405;BME280;49541;57.840;12.306;2023-02-22T19:28:52;100756.28;;;4.31;62.53
63405;BME280;49541;57.840;12.306;2023-02-22T19:33:52;100738.66;;;4.02;64.27
63405;BME280;49541;57.840;12.306;2023-02-22T19:38:52;100744.09;;;4.15;64.25
63405;BME280;49541;57.840;12.306;2023-02-22T19:43:53;100737.69;;;4.35;63.43
63405;BME280;49541;57.840;12.306;2023-02-22T19:48:53;100734.09;;;4.36;63.23
63405;BME280;49541;57.840;12.306;2023-02-22T19:53:58;100728.88;;;4.20;64.16
63405;BME280;49541;57.840;12.306;2023-02-22T19:58:59;100723.19;;;4.12;64.57
63405;BME280;49541;57.840;12.306;2023-02-22T20:04:02;100732.78;;;4.13;64.90
63405;BME280;49541;57.840;12.306;2023-02-22T20:09:03;100716.47;;;4.36;63.61
63405;BME280;49541;57.840;12.306;2023-02-22T20:14:03;100720.22;;;4.32;64.31
63405;BME280;49541;57.840;12.306;2023-02-22T20:19:05;100731.31;;;4.23;65.02
63405;BME280;49541;57.840;12.306;2023-02-22T20:24:07;100723.25;;;4.10;64.86
63405;BME280;49541;57.840;12.306;2023-02-22T20:29:08;100730.22;;;3.81;66.18
63405;BME280;49541;57.840;12.306;2023-02-22T20:34:09;100717.38;;;3.75;66.56
63405;BME280;49541;57.840;12.306;2023-02-22T20:39:09;100714.38;;;4.27;65.48
63405;BME280;49541;57.840;12.306;2023-02-22T20:44:13;100709.03;;;3.98;66.39
63405;BME280;49541;57.840;12.306;2023-02-22T20:49:15;100706.38;;;3.98;66.50
63405;BME280;49541;57.840;12.306;2023-02-22T20:54:16;100706.31;;;3.84;67.29
63405;BME280;49541;57.840;12.306;2023-02-22T20:59:17;100711.25;;;3.90;67.30
63405;BME280;49541;57.840;12.306;2023-02-22T21:04:18;100700.63;;;4.22;65.69
63405;BME280;49541;57.840;12.306;2023-02-22T21:09:20;100699.91;;;4.34;64.75
63405;BME280;49541;57.840;12.306;2023-02-22T21:14:21;100698.72;;;4.09;65.83
63405;BME280;49541;57.840;12.306;2023-02-22T21:19:23;100695.09;;;3.96;66.09
63405;BME280;49541;57.840;12.306;2023-02-22T21:24:26;100687.13;;;4.12;65.60
63405;BME280;49541;57.840;12.306;2023-02-22T21:29:27;100678.69;;;4.21;65.34
63405;BME280;49541;57.840;12.306;2023-02-22T21:34:27;100688.78;;;3.99;66.50
63405;BME280;49541;57.840;12.306;2023-02-22T21:39:28;100680.38;;;3.92;66.39
63405;BME280;49541;57.840;12.306;2023-02-22T21:44:28;100678.31;;;3.97;66.64
63405;BME280;49541;57.840;12.306;2023-02-22T21:49:29;100675.31;;;3.73;67.38
63405;BME280;49541;57.840;12.306;2023-02-22T21:54:29;100665.47;;;3.77;67.45
63405;BME280;49541;57.840;12.306;2023-02-22T21:59:29;100667.88;;;3.49;68.73
63405;BME280;49541;57.840;12.306;2023-02-22T22:04:30;100660.09;;;4.08;66.85
63405;BME280;49541;57.840;12.306;2023-02-22T22:09:31;100659.66;;;3.86;67.61
63405;BME280;49541;57.840;12.306;2023-02-22T22:14:32;100656.59;;;3.94;67.12
63405;BME280;49541;57.840;12.306;2023-02-22T22:19:33;100656.28;;;3.84;67.62
63405;BME280;49541;57.840;12.306;2023-02-22T22:24:33;100640.91;;;4.06;67.49
63405;BME280;49541;57.840;12.306;2023-02-22T22:29:34;100633.09;;;3.75;68.20
63405;BME280;49541;57.840;12.306;2023-02-22T22:34:34;100631.44;;;3.42;69.69
63405;BME280;49541;57.840;12.306;2023-02-22T22:39:36;100637.56;;;3.88;68.51
63405;BME280;49541;57.840;12.306;2023-02-22T22:44:37;100622.94;;;3.37;70.46
63405;BME280;49541;57.840;12.306;2023-02-22T22:49:41;100609.41;;;3.75;68.89
63405;BME280;49541;57.840;12.306;2023-02-22T22:54:41;100594.84;;;3.37;69.93
63405;BME280;49541;57.840;12.306;2023-02-22T22:59:42;100591.44;;;3.51;69.56
63405;BME280;49541;57.840;12.306;2023-02-22T23:04:42;100581.06;;;3.78;68.73
63405;BME280;49541;57.840;12.306;2023-02-22T23:09:42;100578.56;;;3.91;68.54
63405;BME280;49541;57.840;12.306;2023-02-22T23:14:43;100572.81;;;3.84;67.65
63405;BME280;49541;57.840;12.306;2023-02-22T23:19:43;100571.31;;;3.80;68.20
63405;BME280;49541;57.840;12.306;2023-02-22T23:24:43;100569.69;;;3.47;69.71
63405;BME280;49541;57.840;12.306;2023-02-22T23:29:44;100555.31;;;3.23;71.73
63405;BME280;49541;57.840;12.306;2023-02-22T23:34:45;100540.66;;;3.49;70.18
63405;BME280;49541;57.840;12.306;2023-02-22T23:39:48;100540.44;;;3.68;69.07
63405;BME280;49541;57.840;12.306;2023-02-22T23:44:49;100530.63;;;3.40;70.49
63405;BME280;49541;57.840;12.306;2023-02-22T23:49:51;100532.13;;;3.30;71.20
63405;BME280;49541;57.840;12.306;2023-02-22T23:54:53;100536.16;;;3.51;70.45
63405;BME280;49541;57.840;12.306;2023-02-22T23:59:53;100537.22;;;3.63;69.54
